sensor_id;sensor_type;location;lat;lon;timestamp;temperature;humidity
15288;DHT22;7745;48.708;9.026;2022-09-02T00:00:49;14.40;99.90
15288;DHT22;7745;48.708;9.026;2022-09-02T00:03:17;14.50;99.90
15288;DHT22;7745;48.708;9.026;2022-09-02T00:05:45;14.70;99.90
15288;DHT22;7745;48.708;9.026;2022-09-02T00:08:12;14.70;99.90
15288;DHT22;7745;48.708;9.026;2022-09-02T00:10:40;14.70;99.90
15288;DHT22;7745;48.708;9.026;2022-09-02T00:13:09;14.70;99.90
15288;DHT22;7745;48.708;9.026;2022-09-02T00:15:36;14.80;99.90
15288;DHT22;7745;48.708;9.026;2022-09-02T00:18:05;14.70;99.90
15288;DHT22;7745;48.708;9.026;2022-09-02T00:20:32;14.70;99.90
15288;DHT22;7745;48.708;9.026;2022-09-02T00:22:59;14.70;99.90
15288;DHT22;7745;48.708;9.026;2022-09-02T00:25:27;14.70;99.90
15288;DHT22;7745;48.708;9.026;2022-09-02T00:27:53;14.60;99.90
15288;DHT22;7745;48.708;9.026;2022-09-02T00:30:20;14.50;99.90
15288;DHT22;7745;48.708;9.026;2022-09-02T00:32:47;14.50;99.90
15288;DHT22;7745;48.708;9.026;2022-09-02T00:35:15;14.40;99.90
15288;DHT22;7745;48.708;9.026;2022-09-02T00:37:42;14.40;99.90
15288;DHT22;7745;48.708;9.026;2022-09-02T00:40:10;14.30;99.90
15288;DHT22;7745;48.708;9.026;2022-09-02T00:42:37;14.30;99.90
15288;DHT22;7745;48.708;9.026;2022-09-02T00:45:06;14.20;99.90
15288;DHT22;7745;48.708;9.026;2022-09-02T00:47:34;14.20;99.90
15288;DHT22;7745;48.708;9.026;2022-09-02T00:50:04;14.20;99.90
15288;DHT22;7745;48.708;9.026;2022-09-02T00:52:34;14.10;99.90
15288;DHT22;7745;48.708;9.026;2022-09-02T00:55:06;14.20;99.90
15288;DHT22;7745;48.708;9.026;2022-09-02T00:57:36;14.00;99.90
15288;DHT22;7745;48.708;9.026;2022-09-02T01:00:09;14.00;99.90
15288;DHT22;7745;48.708;9.026;2022-09-02T01:02:38;13.90;99.90
15288;DHT22;7745;48.708;9.026;2022-09-02T01:05:08;13.80;99.90
15288;DHT22;7745;48.708;9.026;2022-09-02T01:07:38;13.80;99.90
15288;DHT22;7745;48.708;9.026;2022-09-02T01:10:08;13.90;99.90
15288;DHT22;7745;48.708;9.026;2022-09-02T01:12:36;13.80;99.90
15288;DHT22;7745;48.708;9.026;2022-09-02T01:15:04;13.80;99.90
15288;DHT22;7745;48.708;9.026;2022-09-02T01:17:32;13.70;99.90
15288;DHT22;7745;48.708;9.026;2022-09-02T01:20:03;13.70;99.90
15288;DHT22;7745;48.708;9.026;2022-09-02T01:22:32;13.60;99.90
15288;DHT22;7745;48.708;9.026;2022-09-02T01:25:05;13.60;99.90
15288;DHT22;7745;48.708;9.026;2022-09-02T01:27:33;13.50;99.90
15288;DHT22;7745;48.708;9.026;2022-09-02T01:30:00;13.40;99.90
15288;DHT22;7745;48.708;9.026;2022-09-02T01:32:29;13.40;99.90
15288;DHT22;7745;48.708;9.026;2022-09-02T01:34:57;13.40;99.90
15288;DHT22;7745;48.708;9.026;2022-09-02T01:37:24;13.40;99.90
15288;DHT22;7745;48.708;9.026;2022-09-02T01:39:52;13.30;99.90
15288;DHT22;7745;48.708;9.026;2022-09-02T01:42:21;13.50;99.90
15288;DHT22;7745;48.708;9.026;2022-09-02T01:44:48;13.20;99.90
15288;DHT22;7745;48.708;9.026;2022-09-02T01:47:17;13.40;99.90
15288;DHT22;7745;48.708;9.026;2022-09-02T01:49:45;13.20;99.90
15288;DHT22;7745;48.708;9.026;2022-09-02T01:52:13;13.10;99.90
15288;DHT22;7745;48.708;9.026;2022-09-02T01:54:40;13.10;99.90
15288;DHT22;7745;48.708;9.026;2022-09-02T01:57:08;13.10;99.90
15288;DHT22;7745;48.708;9.026;2022-09-02T01:59:35;13.10;99.90
15288;DHT22;7745;48.708;9.026;2022-09-02T02:02:03;13.10;99.90
15288;DHT22;7745;48.708;9.026;2022-09-02T02:04:30;13.40;99.90
15288;DHT22;7745;48.708;9.026;2022-09-02T02:06:58;13.10;99.90
15288;DHT22;7745;48.708;9.026;2022-09-02T02:09:25;13.20;99.90
15288;DHT22;7745;48.708;9.026;2022-09-02T02:11:52;13.10;99.90
15288;DHT22;7745;48.708;9.026;2022-09-02T02:14:21;13.10;99.90
15288;DHT22;7745;48.708;9.026;2022-09-02T02:16:49;13.20;99.90
15288;DHT22;7745;48.708;9.026;2022-09-02T02:19:16;13.10;99.90
15288;DHT22;7745;48.708;9.026;2022-09-02T02:21:43;13.20;99.90
15288;DHT22;7745;48.708;9.026;2022-09-02T02:24:09;13.10;99.90
15288;DHT22;7745;48.708;9.026;2022-09-02T02:26:36;13.20;99.90
15288;DHT22;7745;48.708;9.026;2022-09-02T02:29:03;13.20;99.90
15288;DHT22;7745;48.708;9.026;2022-09-02T02:31:32;12.90;99.90
15288;DHT22;7745;48.708;9.026;2022-09-02T02:33:59;13.00;99.90
15288;DHT22;7745;48.708;9.026;2022-09-02T02:36:26;13.20;99.90
15288;DHT22;7745;48.708;9.026;2022-09-02T02:38:54;12.90;99.90
15288;DHT22;7745;48.708;9.026;2022-09-02T02:41:21;13.00;99.90
15288;DHT22;7745;48.708;9.026;2022-09-02T02:43:48;12.80;99.90
15288;DHT22;7745;48.708;9.026;2022-09-02T02:46:15;12.80;99.90
15288;DHT22;7745;48.708;9.026;2022-09-02T02:48:44;12.80;99.90
15288;DHT22;7745;48.708;9.026;2022-09-02T02:51:12;12.90;99.90
15288;DHT22;7745;48.708;9.026;2022-09-02T02:53:39;12.90;99.90
15288;DHT22;7745;48.708;9.026;2022-09-02T02:56:07;12.70;99.90
15288;DHT22;7745;48.708;9.026;2022-09-02T02:58:34;12.70;99.90
15288;DHT22;7745;48.708;9.026;2022-09-02T03:01:01;12.60;99.90
15288;DHT22;7745;48.708;9.026;2022-09-02T03:03:28;12.60;99.90
15288;DHT22;7745;48.708;9.026;2022-09-02T03:05:57;12.70;99.90
15288;DHT22;7745;48.708;9.026;2022-09-02T03:08:24;12.60;99.90
15288;DHT22;7745;48.708;9.026;2022-09-02T03:10:52;12.70;99.90
15288;DHT22;7745;48.708;9.026;2022-09-02T03:13:21;12.60;99.90
15288;DHT22;7745;48.708;9.026;2022-09-02T03:15:48;12.60;99.90
15288;DHT22;7745;48.708;9.026;2022-09-02T03:18:16;12.60;99.90
15288;DHT22;7745;48.708;9.026;2022-09-02T03:20:43;12.80;99.90
15288;DHT22;7745;48.708;9.026;2022-09-02T03:23:12;12.70;99.90
15288;DHT22;7745;48.708;9.026;2022-09-02T03:25:41;12.70;99.90
15288;DHT22;7745;48.708;9.026;2022-09-02T03:28:09;12.60;99.90
15288;DHT22;7745;48.708;9.026;2022-09-02T03:30:37;12.60;99.90
15288;DHT22;7745;48.708;9.026;2022-09-02T03:33:05;12.80;99.90
15288;DHT22;7745;48.708;9.026;2022-09-02T03:35:32;12.80;99.90
15288;DHT22;7745;48.708;9.026;2022-09-02T03:38:00;12.60;99.90
15288;DHT22;7745;48.708;9.026;2022-09-02T03:40:28;12.60;99.90
15288;DHT22;7745;48.708;9.026;2022-09-02T03:42:56;12.60;99.90
15288;DHT22;7745;48.708;9.026;2022-09-02T03:45:23;12.50;99.90
15288;DHT22;7745;48.708;9.026;2022-09-02T03:47:50;12.60;99.90
15288;DHT22;7745;48.708;9.026;2022-09-02T03:50:21;12.50;99.90
15288;DHT22;7745;48.708;9.026;2022-09-02T03:52:48;12.50;99.90
15288;DHT22;7745;48.708;9.026;2022-09-02T03:55:16;12.50;99.90
15288;DHT22;7745;48.708;9.026;2022-09-02T03:57:45;12.60;99.90
15288;DHT22;7745;48.708;9.026;2022-09-02T04:00:15;12.50;99.90
15288;DHT22;7745;48.708;9.026;2022-09-02T04:02:43;12.40;99.90
15288;DHT22;7745;48.708;9.026;2022-09-02T04:05:10;12.50;99.90
15288;DHT22;7745;48.708;9.026;2022-09-02T04:07:38;12.40;99.90
15288;DHT22;7745;48.708;9.026;2022-09-02T04:10:06;12.40;99.90
15288;DHT22;7745;48.708;9.026;2022-09-02T04:12:33;12.40;99.90
15288;DHT22;7745;48.708;9.026;2022-09-02T04:15:04;12.40;99.90
15288;DHT22;7745;48.708;9.026;2022-09-02T04:17:34;12.40;99.90
15288;DHT22;7745;48.708;9.026;2022-09-02T04:20:02;12.40;99.90
15288;DHT22;7745;48.708;9.026;2022-09-02T04:22:30;12.40;99.90
15288;DHT22;7745;48.708;9.026;2022-09-02T04:24:57;12.40;99.90
15288;DHT22;7745;48.708;9.026;2022-09-02T04:27:23;12.30;99.90
15288;DHT22;7745;48.708;9.026;2022-09-02T04:29:50;12.30;99.90
15288;DHT22;7745;48.708;9.026;2022-09-02T04:32:18;12.40;99.90
15288;DHT22;7745;48.708;9.026;2022-09-02T04:34:46;12.40;99.90
15288;DHT22;7745;48.708;9.026;2022-09-02T04:37:13;12.40;99.90
15288;DHT22;7745;48.708;9.026;2022-09-02T04:39:40;12.50;99.90
15288;DHT22;7745;48.708;9.026;2022-09-02T04:42:07;12.50;99.90
15288;DHT22;7745;48.708;9.026;2022-09-02T04:44:34;12.50;99.90
15288;DHT22;7745;48.708;9.026;2022-09-02T04:47:00;12.70;99.90
15288;DHT22;7745;48.708;9.026;2022-09-02T04:49:29;12.60;99.90
15288;DHT22;7745;48.708;9.026;2022-09-02T04:51:57;12.60;99.90
15288;DHT22;7745;48.708;9.026;2022-09-02T04:54:24;12.60;99.90
15288;DHT22;7745;48.708;9.026;2022-09-02T04:56:50;12.50;99.90
15288;DHT22;7745;48.708;9.026;2022-09-02T04:59:18;12.50;99.90
15288;DHT22;7745;48.708;9.026;2022-09-02T05:01:46;12.50;99.90
15288;DHT22;7745;48.708;9.026;2022-09-02T05:04:14;12.40;99.90
15288;DHT22;7745;48.708;9.026;2022-09-02T05:06:43;12.50;99.90
15288;DHT22;7745;48.708;9.026;2022-09-02T05:09:11;12.60;99.90
15288;DHT22;7745;48.708;9.026;2022-09-02T05:11:38;12.60;99.90
15288;DHT22;7745;48.708;9.026;2022-09-02T05:14:05;12.80;99.90
15288;DHT22;7745;48.708;9.026;2022-09-02T05:16:35;12.40;99.90
15288;DHT22;7745;48.708;9.026;2022-09-02T05:19:03;12.40;99.90
15288;DHT22;7745;48.708;9.026;2022-09-02T05:21:30;12.50;99.90
15288;DHT22;7745;48.708;9.026;2022-09-02T05:23:59;12.50;99.90
15288;DHT22;7745;48.708;9.026;2022-09-02T05:26:25;12.70;99.90
15288;DHT22;7745;48.708;9.026;2022-09-02T05:28:52;12.50;99.90
15288;DHT22;7745;48.708;9.026;2022-09-02T05:31:20;12.60;99.90
15288;DHT22;7745;48.708;9.026;2022-09-02T05:33:47;12.60;99.90
15288;DHT22;7745;48.708;9.026;2022-09-02T05:36:17;12.60;99.90
15288;DHT22;7745;48.708;9.026;2022-09-02T05:38:45;12.90;99.90
15288;DHT22;7745;48.708;9.026;2022-09-02T05:41:15;12.80;99.90
15288;DHT22;7745;48.708;9.026;2022-09-02T05:43:45;12.90;99.90
15288;DHT22;7745;48.708;9.026;2022-09-02T05:46:14;13.00;99.90
15288;DHT22;7745;48.708;9.026;2022-09-02T05:48:44;13.20;99.90
15288;DHT22;7745;48.708;9.026;2022-09-02T05:51:28;13.30;99.90
15288;DHT22;7745;48.708;9.026;2022-09-02T05:53:58;13.50;99.90
15288;DHT22;7745;48.708;9.026;2022-09-02T05:56:27;13.60;99.90
15288;DHT22;7745;48.708;9.026;2022-09-02T05:58:54;13.70;99.90
15288;DHT22;7745;48.708;9.026;2022-09-02T06:01:22;13.90;99.90
15288;DHT22;7745;48.708;9.026;2022-09-02T06:03:49;13.90;99.90
15288;DHT22;7745;48.708;9.026;2022-09-02T06:06:17;14.10;99.90
15288;DHT22;7745;48.708;9.026;2022-09-02T06:08:44;14.20;99.90
15288;DHT22;7745;48.708;9.026;2022-09-02T06:11:12;14.30;99.90
15288;DHT22;7745;48.708;9.026;2022-09-02T06:13:41;14.50;99.90
15288;DHT22;7745;48.708;9.026;2022-09-02T06:16:12;14.60;99.90
15288;DHT22;7745;48.708;9.026;2022-09-02T06:18:39;14.70;99.90
15288;DHT22;7745;48.708;9.026;2022-09-02T06:21:06;14.80;99.90
15288;DHT22;7745;48.708;9.026;2022-09-02T06:23:34;14.90;99.90
15288;DHT22;7745;48.708;9.026;2022-09-02T06:26:03;15.00;99.90
15288;DHT22;7745;48.708;9.026;2022-09-02T06:28:31;15.10;99.90
15288;DHT22;7745;48.708;9.026;2022-09-02T06:31:05;15.20;99.90
15288;DHT22;7745;48.708;9.026;2022-09-02T06:33:32;15.30;99.90
15288;DHT22;7745;48.708;9.026;2022-09-02T06:35:59;15.30;99.90
15288;DHT22;7745;48.708;9.026;2022-09-02T06:38:26;15.60;99.90
15288;DHT22;7745;48.708;9.026;2022-09-02T06:40:54;15.50;99.90
15288;DHT22;7745;48.708;9.026;2022-09-02T06:43:23;15.60;99.90
15288;DHT22;7745;48.708;9.026;2022-09-02T06:45:50;15.60;99.90
15288;DHT22;7745;48.708;9.026;2022-09-02T06:48:18;15.80;99.90
15288;DHT22;7745;48.708;9.026;2022-09-02T06:50:46;15.80;99.90
15288;DHT22;7745;48.708;9.026;2022-09-02T06:53:13;15.90;99.90
15288;DHT22;7745;48.708;9.026;2022-09-02T06:55:44;15.90;99.90
15288;DHT22;7745;48.708;9.026;2022-09-02T06:58:12;15.90;99.90
15288;DHT22;7745;48.708;9.026;2022-09-02T07:00:39;16.10;99.90
15288;DHT22;7745;48.708;9.026;2022-09-02T07:03:07;16.20;99.90
15288;DHT22;7745;48.708;9.026;2022-09-02T07:06:03;16.10;99.90
15288;DHT22;7745;48.708;9.026;2022-09-02T07:08:34;16.20;99.90
15288;DHT22;7745;48.708;9.026;2022-09-02T07:11:01;16.30;99.90
15288;DHT22;7745;48.708;9.026;2022-09-02T07:13:28;16.30;99.90
15288;DHT22;7745;48.708;9.026;2022-09-02T07:15:55;16.40;99.90
15288;DHT22;7745;48.708;9.026;2022-09-02T07:18:22;16.50;99.90
15288;DHT22;7745;48.708;9.026;2022-09-02T07:20:49;16.50;99.90
15288;DHT22;7745;48.708;9.026;2022-09-02T07:23:17;16.40;99.90
15288;DHT22;7745;48.708;9.026;2022-09-02T07:25:45;16.50;99.90
15288;DHT22;7745;48.708;9.026;2022-09-02T07:28:12;16.50;99.90
15288;DHT22;7745;48.708;9.026;2022-09-02T07:30:40;16.50;99.90
15288;DHT22;7745;48.708;9.026;2022-09-02T07:33:08;16.60;99.90
15288;DHT22;7745;48.708;9.026;2022-09-02T07:35:38;16.70;99.90
15288;DHT22;7745;48.708;9.026;2022-09-02T07:38:05;16.70;99.90
15288;DHT22;7745;48.708;9.026;2022-09-02T07:40:35;16.70;99.90
15288;DHT22;7745;48.708;9.026;2022-09-02T07:43:02;16.70;99.90
15288;DHT22;7745;48.708;9.026;2022-09-02T07:45:30;16.70;99.90
15288;DHT22;7745;48.708;9.026;2022-09-02T07:47:57;16.80;99.90
15288;DHT22;7745;48.708;9.026;2022-09-02T07:50:24;17.00;99.90
15288;DHT22;7745;48.708;9.026;2022-09-02T07:52:52;17.20;99.90
15288;DHT22;7745;48.708;9.026;2022-09-02T07:55:19;17.10;99.90
15288;DHT22;7745;48.708;9.026;2022-09-02T07:57:48;17.10;99.90
15288;DHT22;7745;48.708;9.026;2022-09-02T08:00:19;17.20;99.90
15288;DHT22;7745;48.708;9.026;2022-09-02T08:02:47;17.30;99.90
15288;DHT22;7745;48.708;9.026;2022-09-02T08:05:14;17.40;99.90
15288;DHT22;7745;48.708;9.026;2022-09-02T08:07:41;17.50;99.90
15288;DHT22;7745;48.708;9.026;2022-09-02T08:10:09;17.50;99.90
15288;DHT22;7745;48.708;9.026;2022-09-02T08:12:37;17.70;99.90
15288;DHT22;7745;48.708;9.026;2022-09-02T08:15:07;17.70;99.90
15288;DHT22;7745;48.708;9.026;2022-09-02T08:17:35;17.80;99.90
15288;DHT22;7745;48.708;9.026;2022-09-02T08:20:05;17.90;99.90
15288;DHT22;7745;48.708;9.026;2022-09-02T08:22:33;18.00;99.90
15288;DHT22;7745;48.708;9.026;2022-09-02T08:25:01;18.00;99.90
15288;DHT22;7745;48.708;9.026;2022-09-02T08:27:28;18.00;99.90
15288;DHT22;7745;48.708;9.026;2022-09-02T08:29:56;18.00;99.90
15288;DHT22;7745;48.708;9.026;2022-09-02T08:32:24;17.90;99.90
15288;DHT22;7745;48.708;9.026;2022-09-02T08:34:51;18.10;99.90
15288;DHT22;7745;48.708;9.026;2022-09-02T08:37:18;18.00;99.90
15288;DHT22;7745;48.708;9.026;2022-09-02T08:39:47;18.10;99.90
15288;DHT22;7745;48.708;9.026;2022-09-02T08:42:18;18.10;99.90
15288;DHT22;7745;48.708;9.026;2022-09-02T08:44:48;18.20;99.90
15288;DHT22;7745;48.708;9.026;2022-09-02T08:47:22;18.30;99.90
15288;DHT22;7745;48.708;9.026;2022-09-02T08:49:55;18.20;99.90
15288;DHT22;7745;48.708;9.026;2022-09-02T08:52:27;18.20;99.90
15288;DHT22;7745;48.708;9.026;2022-09-02T08:54:56;18.20;99.90
15288;DHT22;7745;48.708;9.026;2022-09-02T08:57:24;18.20;99.90
15288;DHT22;7745;48.708;9.026;2022-09-02T08:59:52;18.30;99.90
15288;DHT22;7745;48.708;9.026;2022-09-02T09:02:25;18.40;99.90
15288;DHT22;7745;48.708;9.026;2022-09-02T09:05:09;18.40;99.90
15288;DHT22;7745;48.708;9.026;2022-09-02T09:07:51;18.60;99.90
15288;DHT22;7745;48.708;9.026;2022-09-02T09:10:24;18.80;99.90
15288;DHT22;7745;48.708;9.026;2022-09-02T09:13:03;18.70;99.90
15288;DHT22;7745;48.708;9.026;2022-09-02T09:15:40;18.80;99.90
15288;DHT22;7745;48.708;9.026;2022-09-02T09:18:10;18.80;99.90
15288;DHT22;7745;48.708;9.026;2022-09-02T09:20:42;18.80;99.90
15288;DHT22;7745;48.708;9.026;2022-09-02T09:23:20;18.90;99.90
15288;DHT22;7745;48.708;9.026;2022-09-02T09:25:49;19.00;99.90
15288;DHT22;7745;48.708;9.026;2022-09-02T09:28:18;19.10;99.90
15288;DHT22;7745;48.708;9.026;2022-09-02T09:30:45;19.30;99.90
15288;DHT22;7745;48.708;9.026;2022-09-02T09:33:14;19.50;99.90
15288;DHT22;7745;48.708;9.026;2022-09-02T09:35:51;19.30;99.90
15288;DHT22;7745;48.708;9.026;2022-09-02T09:38:28;19.40;99.90
15288;DHT22;7745;48.708;9.026;2022-09-02T09:41:13;19.50;99.90
15288;DHT22;7745;48.708;9.026;2022-09-02T09:43:40;19.50;99.90
15288;DHT22;7745;48.708;9.026;2022-09-02T09:46:21;19.50;99.90
15288;DHT22;7745;48.708;9.026;2022-09-02T09:48:50;19.70;99.90
15288;DHT22;7745;48.708;9.026;2022-09-02T09:51:19;19.70;99.90
15288;DHT22;7745;48.708;9.026;2022-09-02T09:53:46;19.70;99.90
15288;DHT22;7745;48.708;9.026;2022-09-02T09:56:24;19.60;99.90
15288;DHT22;7745;48.708;9.026;2022-09-02T09:58:52;19.70;99.90
15288;DHT22;7745;48.708;9.026;2022-09-02T10:01:20;19.70;99.90
15288;DHT22;7745;48.708;9.026;2022-09-02T10:03:50;19.70;99.90
15288;DHT22;7745;48.708;9.026;2022-09-02T10:06:21;19.70;99.90
15288;DHT22;7745;48.708;9.026;2022-09-02T10:08:51;19.60;99.90
15288;DHT22;7745;48.708;9.026;2022-09-02T10:11:24;19.70;99.90
15288;DHT22;7745;48.708;9.026;2022-09-02T10:13:54;19.70;99.90
15288;DHT22;7745;48.708;9.026;2022-09-02T10:16:45;19.90;99.90
15288;DHT22;7745;48.708;9.026;2022-09-02T10:19:20;19.80;99.90
15288;DHT22;7745;48.708;9.026;2022-09-02T10:22:08;19.80;99.90
15288;DHT22;7745;48.708;9.026;2022-09-02T10:24:55;19.80;99.90
15288;DHT22;7745;48.708;9.026;2022-09-02T10:27:39;20.00;99.90
15288;DHT22;7745;48.708;9.026;2022-09-02T10:30:10;20.20;99.90
15288;DHT22;7745;48.708;9.026;2022-09-02T10:33:01;20.30;99.90
15288;DHT22;7745;48.708;9.026;2022-09-02T10:35:35;20.30;99.90
15288;DHT22;7745;48.708;9.026;2022-09-02T10:38:23;20.30;99.90
15288;DHT22;7745;48.708;9.026;2022-09-02T10:40:58;20.50;99.90
15288;DHT22;7745;48.708;9.026;2022-09-02T10:43:47;20.40;99.90
15288;DHT22;7745;48.708;9.026;2022-09-02T10:46:17;20.50;99.90
15288;DHT22;7745;48.708;9.026;2022-09-02T10:48:53;20.70;99.90
15288;DHT22;7745;48.708;9.026;2022-09-02T10:51:27;20.70;99.90
15288;DHT22;7745;48.708;9.026;2022-09-02T10:54:09;20.70;99.90
15288;DHT22;7745;48.708;9.026;2022-09-02T10:56:44;20.50;99.90
15288;DHT22;7745;48.708;9.026;2022-09-02T10:59:15;20.50;99.90
15288;DHT22;7745;48.708;9.026;2022-09-02T11:01:48;20.60;99.90
15288;DHT22;7745;48.708;9.026;2022-09-02T11:04:22;20.60;99.90
15288;DHT22;7745;48.708;9.026;2022-09-02T11:06:55;20.70;99.90
15288;DHT22;7745;48.708;9.026;2022-09-02T11:09:31;20.80;99.90
15288;DHT22;7745;48.708;9.026;2022-09-02T11:12:04;20.70;99.90
15288;DHT22;7745;48.708;9.026;2022-09-02T11:14:39;20.50;99.90
15288;DHT22;7745;48.708;9.026;2022-09-02T11:17:16;20.50;99.90
15288;DHT22;7745;48.708;9.026;2022-09-02T11:19:50;20.60;99.90
15288;DHT22;7745;48.708;9.026;2022-09-02T11:22:22;20.70;99.90
15288;DHT22;7745;48.708;9.026;2022-09-02T11:24:55;20.60;99.90
15288;DHT22;7745;48.708;9.026;2022-09-02T11:27:30;20.60;99.90
15288;DHT22;7745;48.708;9.026;2022-09-02T11:30:01;20.50;99.90
15288;DHT22;7745;48.708;9.026;2022-09-02T11:32:35;20.50;99.90
15288;DHT22;7745;48.708;9.026;2022-09-02T11:35:06;20.50;99.90
15288;DHT22;7745;48.708;9.026;2022-09-02T11:37:38;20.50;99.90
15288;DHT22;7745;48.708;9.026;2022-09-02T11:40:13;20.60;99.90
15288;DHT22;7745;48.708;9.026;2022-09-02T11:43:01;20.70;99.90
15288;DHT22;7745;48.708;9.026;2022-09-02T11:45:42;20.90;99.90
15288;DHT22;7745;48.708;9.026;2022-09-02T11:48:37;21.10;99.90
15288;DHT22;7745;48.708;9.026;2022-09-02T11:51:31;21.20;99.90
15288;DHT22;7745;48.708;9.026;2022-09-02T11:54:01;21.20;99.90
15288;DHT22;7745;48.708;9.026;2022-09-02T11:56:35;20.90;99.90
15288;DHT22;7745;48.708;9.026;2022-09-02T11:59:05;20.80;99.90
15288;DHT22;7745;48.708;9.026;2022-09-02T12:01:34;20.80;99.90
15288;DHT22;7745;48.708;9.026;2022-09-02T12:04:05;20.70;99.90
15288;DHT22;7745;48.708;9.026;2022-09-02T12:07:23;20.80;99.90
15288;DHT22;7745;48.708;9.026;2022-09-02T12:09:51;21.00;99.90
15288;DHT22;7745;48.708;9.026;2022-09-02T12:15:26;21.00;99.90
15288;DHT22;7745;48.708;9.026;2022-09-02T12:18:12;21.30;99.90
15288;DHT22;7745;48.708;9.026;2022-09-02T12:21:11;21.30;99.90
15288;DHT22;7745;48.708;9.026;2022-09-02T12:24:07;21.30;99.90
15288;DHT22;7745;48.708;9.026;2022-09-02T12:29:44;21.00;99.90
15288;DHT22;7745;48.708;9.026;2022-09-02T12:38:32;21.10;99.90
15288;DHT22;7745;48.708;9.026;2022-09-02T12:41:21;21.20;99.90
15288;DHT22;7745;48.708;9.026;2022-09-02T12:44:00;21.50;99.90
15288;DHT22;7745;48.708;9.026;2022-09-02T12:46:45;21.70;99.90
15288;DHT22;7745;48.708;9.026;2022-09-02T12:49:27;22.00;99.90
15288;DHT22;7745;48.708;9.026;2022-09-02T12:52:02;21.80;99.90
15288;DHT22;7745;48.708;9.026;2022-09-02T12:54:35;21.70;99.90
15288;DHT22;7745;48.708;9.026;2022-09-02T12:57:02;21.90;99.90
15288;DHT22;7745;48.708;9.026;2022-09-02T12:59:31;21.60;99.90
15288;DHT22;7745;48.708;9.026;2022-09-02T13:02:09;21.60;99.90
15288;DHT22;7745;48.708;9.026;2022-09-02T13:04:47;21.70;99.90
15288;DHT22;7745;48.708;9.026;2022-09-02T13:10:36;21.40;99.90
15288;DHT22;7745;48.708;9.026;2022-09-02T13:16:32;21.70;99.90
15288;DHT22;7745;48.708;9.026;2022-09-02T13:25:27;21.70;99.90
15288;DHT22;7745;48.708;9.026;2022-09-02T13:31:12;21.70;99.90
15288;DHT22;7745;48.708;9.026;2022-09-02T13:33:42;21.60;99.90
15288;DHT22;7745;48.708;9.026;2022-09-02T13:36:09;21.60;99.90
15288;DHT22;7745;48.708;9.026;2022-09-02T13:38:37;21.50;99.90
15288;DHT22;7745;48.708;9.026;2022-09-02T13:41:05;21.50;99.90
15288;DHT22;7745;48.708;9.026;2022-09-02T13:43:32;21.40;99.90
15288;DHT22;7745;48.708;9.026;2022-09-02T13:46:00;21.40;99.90
15288;DHT22;7745;48.708;9.026;2022-09-02T13:48:30;21.50;99.90
15288;DHT22;7745;48.708;9.026;2022-09-02T13:51:01;21.50;99.90
15288;DHT22;7745;48.708;9.026;2022-09-02T13:53:34;21.60;99.90
15288;DHT22;7745;48.708;9.026;2022-09-02T13:56:06;21.80;99.90
15288;DHT22;7745;48.708;9.026;2022-09-02T13:58:37;21.80;99.90
15288;DHT22;7745;48.708;9.026;2022-09-02T14:01:20;21.70;99.90
15288;DHT22;7745;48.708;9.026;2022-09-02T14:03:48;21.70;99.90
15288;DHT22;7745;48.708;9.026;2022-09-02T14:06:18;21.80;99.90
15288;DHT22;7745;48.708;9.026;2022-09-02T14:08:48;21.80;99.90
15288;DHT22;7745;48.708;9.026;2022-09-02T14:11:17;21.80;99.90
15288;DHT22;7745;48.708;9.026;2022-09-02T14:13:46;21.70;99.90
15288;DHT22;7745;48.708;9.026;2022-09-02T14:16:24;21.80;99.90
15288;DHT22;7745;48.708;9.026;2022-09-02T14:19:06;21.80;99.90
15288;DHT22;7745;48.708;9.026;2022-09-02T14:21:35;22.00;99.90
15288;DHT22;7745;48.708;9.026;2022-09-02T14:24:03;21.90;99.90
15288;DHT22;7745;48.708;9.026;2022-09-02T14:26:35;22.00;99.90
15288;DHT22;7745;48.708;9.026;2022-09-02T14:29:04;22.00;99.90
15288;DHT22;7745;48.708;9.026;2022-09-02T14:31:31;22.00;99.90
15288;DHT22;7745;48.708;9.026;2022-09-02T14:33:59;22.10;99.90
15288;DHT22;7745;48.708;9.026;2022-09-02T14:36:33;22.00;99.90
15288;DHT22;7745;48.708;9.026;2022-09-02T14:39:12;22.00;99.90
15288;DHT22;7745;48.708;9.026;2022-09-02T14:41:46;22.10;99.90
15288;DHT22;7745;48.708;9.026;2022-09-02T14:44:17;22.10;99.90
15288;DHT22;7745;48.708;9.026;2022-09-02T14:46:48;22.20;99.90
15288;DHT22;7745;48.708;9.026;2022-09-02T14:49:21;22.10;99.90
15288;DHT22;7745;48.708;9.026;2022-09-02T14:51:50;22.10;99.90
15288;DHT22;7745;48.708;9.026;2022-09-02T14:54:33;22.00;99.90
15288;DHT22;7745;48.708;9.026;2022-09-02T14:57:02;22.00;99.90
15288;DHT22;7745;48.708;9.026;2022-09-02T14:59:29;22.20;99.90
15288;DHT22;7745;48.708;9.026;2022-09-02T15:01:57;22.20;99.90
15288;DHT22;7745;48.708;9.026;2022-09-02T15:04:24;22.10;99.90
15288;DHT22;7745;48.708;9.026;2022-09-02T15:06:51;22.00;99.90
15288;DHT22;7745;48.708;9.026;2022-09-02T15:09:18;22.10;99.90
15288;DHT22;7745;48.708;9.026;2022-09-02T15:11:48;22.10;99.90
15288;DHT22;7745;48.708;9.026;2022-09-02T15:14:18;22.00;99.90
15288;DHT22;7745;48.708;9.026;2022-09-02T15:16:44;22.00;99.90
15288;DHT22;7745;48.708;9.026;2022-09-02T15:19:12;22.10;99.90
15288;DHT22;7745;48.708;9.026;2022-09-02T15:21:39;22.10;99.90
15288;DHT22;7745;48.708;9.026;2022-09-02T15:24:06;22.10;99.90
15288;DHT22;7745;48.708;9.026;2022-09-02T15:26:33;22.20;99.90
15288;DHT22;7745;48.708;9.026;2022-09-02T15:28:59;22.20;99.90
15288;DHT22;7745;48.708;9.026;2022-09-02T15:31:29;22.30;99.90
15288;DHT22;7745;48.708;9.026;2022-09-02T15:33:56;22.20;99.90
15288;DHT22;7745;48.708;9.026;2022-09-02T15:36:23;22.30;99.90
15288;DHT22;7745;48.708;9.026;2022-09-02T15:38:52;22.40;99.90
15288;DHT22;7745;48.708;9.026;2022-09-02T15:41:20;22.20;99.90
15288;DHT22;7745;48.708;9.026;2022-09-02T15:43:47;22.20;99.90
15288;DHT22;7745;48.708;9.026;2022-09-02T15:46:23;22.20;99.90
15288;DHT22;7745;48.708;9.026;2022-09-02T15:48:51;22.10;99.90
15288;DHT22;7745;48.708;9.026;2022-09-02T15:51:20;22.10;99.90
15288;DHT22;7745;48.708;9.026;2022-09-02T15:53:53;22.10;99.90
15288;DHT22;7745;48.708;9.026;2022-09-02T15:56:21;22.00;99.90
15288;DHT22;7745;48.708;9.026;2022-09-02T15:58:53;22.00;99.90
15288;DHT22;7745;48.708;9.026;2022-09-02T16:01:23;22.00;99.90
15288;DHT22;7745;48.708;9.026;2022-09-02T16:03:51;22.00;99.90
15288;DHT22;7745;48.708;9.026;2022-09-02T16:06:18;21.90;99.90
15288;DHT22;7745;48.708;9.026;2022-09-02T16:08:45;21.90;99.90
15288;DHT22;7745;48.708;9.026;2022-09-02T16:11:12;21.90;99.90
15288;DHT22;7745;48.708;9.026;2022-09-02T16:13:39;21.80;99.90
15288;DHT22;7745;48.708;9.026;2022-09-02T16:16:08;21.90;99.90
15288;DHT22;7745;48.708;9.026;2022-09-02T16:18:36;21.80;99.90
15288;DHT22;7745;48.708;9.026;2022-09-02T16:21:06;21.80;99.90
15288;DHT22;7745;48.708;9.026;2022-09-02T16:23:33;21.80;99.90
15288;DHT22;7745;48.708;9.026;2022-09-02T16:26:12;21.80;99.90
15288;DHT22;7745;48.708;9.026;2022-09-02T16:28:41;21.70;99.90
15288;DHT22;7745;48.708;9.026;2022-09-02T16:31:09;21.70;99.90
15288;DHT22;7745;48.708;9.026;2022-09-02T16:33:37;21.70;99.90